This is the latest recevied weather packets stored in our database for station/object DL1DH-17. If no packets are shown the sender has not sent any weather packets the latest 1 day(s).
| Time | Temp. | Humidity | Pressure | Rain* | Wind** | Luminosity | Snow |
|---|---|---|---|---|---|---|---|
| 1778100434 | 12.22° C | 76% | 968.8 hPa | - | - | - | - |
| 1778098756 | 12.78° C | 75% | 968.8 hPa | - | - | - | - |
| 1778096234 | 12.78° C | 73% | 968.3 hPa | - | - | - | - |
| 1778095394 | 12.78° C | 73% | 968.2 hPa | - | - | - | - |
| 1778091194 | 14.44° C | 66% | 967.1 hPa | - | - | - | - |
| 1778088674 | 16.11° C | 61% | 966.7 hPa | - | - | - | - |
| 1778086153 | 16.11° C | 61% | 966.3 hPa | - | - | - | - |
| 1778084473 | 16.67° C | 59% | 966.3 hPa | - | - | - | - |
| 1778080275 | 18.33° C | 50% | 966.4 hPa | - | - | - | - |
| 1778078594 | 18.89° C | 49% | 966.5 hPa | - | - | - | - |
| 1778076912 | 20° C | 48% | 966.3 hPa | - | - | - | - |
| 1778071035 | 19.44° C | 51% | 966.3 hPa | - | - | - | - |
| 1778066830 | 18.33° C | 57% | 966.6 hPa | - | - | - | - |
| 1778065991 | 17.78° C | 59% | 966.8 hPa | - | - | - | - |
| 1778065151 | 17.22° C | 62% | 966.8 hPa | - | - | - | - |
| 1778064310 | 17.22° C | 63% | 967 hPa | - | - | - | - |
| 1778062629 | 17.78° C | 64% | 966.9 hPa | - | - | - | - |
| 1778058429 | 15.56° C | 73% | 967.4 hPa | - | - | - | - |
| 1778057589 | 16.11° C | 72% | 967.4 hPa | - | - | - | - |
| 1778056749 | 15.56° C | 74% | 967.6 hPa | - | - | - | - |
| 1778055909 | 16.11° C | 74% | 967.3 hPa | - | - | - | - |
| 1778050868 | 12.78° C | 84% | 967.2 hPa | - | - | - | - |
| 1778049188 | 13.33° C | 86% | 967.3 hPa | - | - | - | - |
| 1778048348 | 13.33° C | 88% | 967.4 hPa | - | - | - | - |
| 1778047508 | 11.67° C | 88% | 967.3 hPa | - | - | - | - |
* Rain since midnight (hover to see other rain measurements)
** Current wind speed in m/s (hover to see current wind gust speed)